Alconbury RAF, United Kingdom

7:09 AM GMT on February 08, 2016 (GMT +0000)
Alconbury Weston | | Change Station
CLOSE
Current Station
Personal Weather Station
Location: Alconbury Weston,
Elevation: 79 ft
Nearby Weather Stations

Elev 79 ft 52.37 °N, 0.28 °W | Updated 4 seconds ago

Clear
Clear
43.0 °F
Feels Like 39 °F
N
6.7
Wind Variable Wind from WSW
Gusts 7.4 mph

Today
High -- | Low -- °F
--% Chance of Precip.
Yesterday
High -- | Low -- °F
Precip. -- in
Pressure 28.88 in
Visibility -9999.0 miles
Clouds
Windchill 39 °F
Dew Point 35 °F
Humidity 73%
Rainfall 0.00 in
Snow Depth Not available.
7:31 AM 4:59 PM
Waning Crescent, 0% visible
METAR EGXT 080650Z 22019KT CAVOK 05/03 Q0978 BLU
Pressure 28.88 in
Visibility -9999.0 miles
Clouds
Windchill 39 °F
Dew Point 35 °F
Humidity 73%
Rainfall 0.00 in
Snow Depth Not available.
7:31 AM 4:59 PM
Waning Crescent, 0% visible
METAR EGXT 080650Z 22019KT CAVOK 05/03 Q0978 BLU

10-Day Weather Forecast

Almanac

Astronomy

Feb. 08, 2016 Rise Set
Actual Time
Civil Twilight
Nautical Twilight
Astronomical Twilight
Moon
Length of Visible Light
Length of Day
Tomorrow will be .
, % of the Moon is Illuminated

Today's Extremes

Country Highs Country Lows

Community

WunderPhotos

Upload Photos

1,891,394 photos uploaded!

WunderBlog® & News

Nearby

Air Quality

  Air Quality AQ Index Pollutant
Not available.

Snow Depth

Station Depth Elevation

Earthquake Activity

City Distance Mag. Time & Date
Minimum magnitude displayed is 2.5.

Coastal Water Temperatures

Place Temperature

Stations

Nearby Weather Stations

Station Location Temp. Windchill Dew Point Humidity Wind Precip. Elev Updated Type